sensor_id;sensor_type;location;lat;lon;timestamp;P1;durP1;ratioP1;P2;durP2;ratioP2
13872;SDS011;7006;51.494;11.964;2022-11-11T00:00:20;12.30;;;7.47;;
13872;SDS011;7006;51.494;11.964;2022-11-11T00:02:47;10.47;;;6.40;;
13872;SDS011;7006;51.494;11.964;2022-11-11T00:05:13;14.43;;;7.43;;
13872;SDS011;7006;51.494;11.964;2022-11-11T00:07:40;12.07;;;6.33;;
13872;SDS011;7006;51.494;11.964;2022-11-11T00:10:06;13.00;;;7.13;;
13872;SDS011;7006;51.494;11.964;2022-11-11T00:12:33;11.03;;;7.30;;
13872;SDS011;7006;51.494;11.964;2022-11-11T00:14:59;13.30;;;8.30;;
13872;SDS011;7006;51.494;11.964;2022-11-11T00:17:27;15.20;;;7.63;;
13872;SDS011;7006;51.494;11.964;2022-11-11T00:20:11;10.57;;;6.60;;
13872;SDS011;7006;51.494;11.964;2022-11-11T00:22:55;9.33;;;6.77;;
13872;SDS011;7006;51.494;11.964;2022-11-11T00:25:39;13.73;;;6.73;;
13872;SDS011;7006;51.494;11.964;2022-11-11T00:28:06;12.43;;;6.60;;
13872;SDS011;7006;51.494;11.964;2022-11-11T00:30:32;13.33;;;6.70;;
13872;SDS011;7006;51.494;11.964;2022-11-11T00:33:00;12.13;;;7.07;;
13872;SDS011;7006;51.494;11.964;2022-11-11T00:35:26;14.60;;;7.07;;
13872;SDS011;7006;51.494;11.964;2022-11-11T00:38:11;14.47;;;7.77;;
13872;SDS011;7006;51.494;11.964;2022-11-11T00:40:58;10.57;;;6.40;;
13872;SDS011;7006;51.494;11.964;2022-11-11T00:43:25;15.00;;;7.13;;
13872;SDS011;7006;51.494;11.964;2022-11-11T00:45:51;12.10;;;7.53;;
13872;SDS011;7006;51.494;11.964;2022-11-11T00:48:19;14.40;;;7.90;;
13872;SDS011;7006;51.494;11.964;2022-11-11T00:51:14;16.07;;;7.63;;
13872;SDS011;7006;51.494;11.964;2022-11-11T00:53:41;19.03;;;7.80;;
13872;SDS011;7006;51.494;11.964;2022-11-11T00:56:07;17.80;;;7.43;;
13872;SDS011;7006;51.494;11.964;2022-11-11T00:58:33;12.33;;;7.40;;
13872;SDS011;7006;51.494;11.964;2022-11-11T01:01:00;10.13;;;6.00;;
13872;SDS011;7006;51.494;11.964;2022-11-11T01:03:27;11.40;;;6.27;;
13872;SDS011;7006;51.494;11.964;2022-11-11T01:05:54;9.20;;;5.60;;
13872;SDS011;7006;51.494;11.964;2022-11-11T01:08:24;10.80;;;6.30;;
13872;SDS011;7006;51.494;11.964;2022-11-11T01:10:51;9.70;;;5.63;;
13872;SDS011;7006;51.494;11.964;2022-11-11T01:13:18;12.37;;;5.87;;
13872;SDS011;7006;51.494;11.964;2022-11-11T01:15:45;9.63;;;5.37;;
13872;SDS011;7006;51.494;11.964;2022-11-11T01:18:13;10.73;;;6.17;;
13872;SDS011;7006;51.494;11.964;2022-11-11T01:20:41;10.27;;;5.60;;
13872;SDS011;7006;51.494;11.964;2022-11-11T01:23:08;10.37;;;6.20;;
13872;SDS011;7006;51.494;11.964;2022-11-11T01:25:35;9.87;;;5.90;;
13872;SDS011;7006;51.494;11.964;2022-11-11T01:28:02;11.40;;;5.90;;
13872;SDS011;7006;51.494;11.964;2022-11-11T01:30:30;7.23;;;5.90;;
13872;SDS011;7006;51.494;11.964;2022-11-11T01:32:56;12.63;;;6.10;;
13872;SDS011;7006;51.494;11.964;2022-11-11T01:35:23;11.90;;;7.10;;
13872;SDS011;7006;51.494;11.964;2022-11-11T01:37:50;13.63;;;7.47;;
13872;SDS011;7006;51.494;11.964;2022-11-11T01:40:17;11.17;;;6.60;;
13872;SDS011;7006;51.494;11.964;2022-11-11T01:42:47;13.40;;;6.57;;
13872;SDS011;7006;51.494;11.964;2022-11-11T01:47:58;11.87;;;6.13;;
13872;SDS011;7006;51.494;11.964;2022-11-11T01:50:42;16.17;;;7.27;;
13872;SDS011;7006;51.494;11.964;2022-11-11T01:53:09;9.50;;;6.30;;
13872;SDS011;7006;51.494;11.964;2022-11-11T01:55:36;9.97;;;5.60;;
13872;SDS011;7006;51.494;11.964;2022-11-11T01:58:03;12.80;;;6.90;;
13872;SDS011;7006;51.494;11.964;2022-11-11T02:00:31;11.80;;;7.03;;
13872;SDS011;7006;51.494;11.964;2022-11-11T02:02:58;15.10;;;7.37;;
13872;SDS011;7006;51.494;11.964;2022-11-11T02:05:26;11.63;;;6.70;;
13872;SDS011;7006;51.494;11.964;2022-11-11T02:08:08;11.63;;;7.27;;
13872;SDS011;7006;51.494;11.964;2022-11-11T02:10:38;16.00;;;7.67;;
13872;SDS011;7006;51.494;11.964;2022-11-11T02:13:07;11.90;;;8.60;;
13872;SDS011;7006;51.494;11.964;2022-11-11T02:15:54;15.30;;;7.87;;
13872;SDS011;7006;51.494;11.964;2022-11-11T02:18:21;14.00;;;9.00;;
13872;SDS011;7006;51.494;11.964;2022-11-11T02:20:47;14.37;;;8.20;;
13872;SDS011;7006;51.494;11.964;2022-11-11T02:23:14;18.03;;;9.63;;
13872;SDS011;7006;51.494;11.964;2022-11-11T02:25:44;15.93;;;9.83;;
13872;SDS011;7006;51.494;11.964;2022-11-11T02:28:11;18.13;;;10.67;;
13872;SDS011;7006;51.494;11.964;2022-11-11T02:30:38;14.30;;;10.20;;
13872;SDS011;7006;51.494;11.964;2022-11-11T02:33:04;16.90;;;11.27;;
13872;SDS011;7006;51.494;11.964;2022-11-11T02:35:31;20.13;;;10.87;;
13872;SDS011;7006;51.494;11.964;2022-11-11T02:37:58;20.57;;;12.03;;
13872;SDS011;7006;51.494;11.964;2022-11-11T02:40:26;19.93;;;10.80;;
13872;SDS011;7006;51.494;11.964;2022-11-11T02:42:55;25.27;;;12.10;;
13872;SDS011;7006;51.494;11.964;2022-11-11T02:45:21;19.77;;;12.43;;
13872;SDS011;7006;51.494;11.964;2022-11-11T02:47:47;22.57;;;13.30;;
13872;SDS011;7006;51.494;11.964;2022-11-11T02:50:13;22.07;;;12.60;;
13872;SDS011;7006;51.494;11.964;2022-11-11T02:52:40;16.50;;;13.17;;
13872;SDS011;7006;51.494;11.964;2022-11-11T02:55:06;19.57;;;13.40;;
13872;SDS011;7006;51.494;11.964;2022-11-11T02:57:33;21.93;;;12.87;;
13872;SDS011;7006;51.494;11.964;2022-11-11T03:00:01;27.07;;;14.30;;
13872;SDS011;7006;51.494;11.964;2022-11-11T03:02:28;20.87;;;14.07;;
13872;SDS011;7006;51.494;11.964;2022-11-11T03:04:54;20.10;;;11.50;;
13872;SDS011;7006;51.494;11.964;2022-11-11T03:07:21;17.60;;;12.03;;
13872;SDS011;7006;51.494;11.964;2022-11-11T03:09:47;19.03;;;11.10;;
13872;SDS011;7006;51.494;11.964;2022-11-11T03:12:14;17.23;;;10.23;;
13872;SDS011;7006;51.494;11.964;2022-11-11T03:14:40;13.10;;;8.20;;
13872;SDS011;7006;51.494;11.964;2022-11-11T03:17:08;21.77;;;11.10;;
13872;SDS011;7006;51.494;11.964;2022-11-11T03:19:52;16.43;;;9.40;;
13872;SDS011;7006;51.494;11.964;2022-11-11T03:22:38;16.47;;;9.37;;
13872;SDS011;7006;51.494;11.964;2022-11-11T03:25:04;16.70;;;9.37;;
13872;SDS011;7006;51.494;11.964;2022-11-11T03:27:48;15.27;;;9.10;;
13872;SDS011;7006;51.494;11.964;2022-11-11T03:30:14;14.73;;;8.60;;
13872;SDS011;7006;51.494;11.964;2022-11-11T03:32:43;14.70;;;8.90;;
13872;SDS011;7006;51.494;11.964;2022-11-11T03:35:09;17.03;;;9.90;;
13872;SDS011;7006;51.494;11.964;2022-11-11T03:37:36;12.93;;;8.47;;
13872;SDS011;7006;51.494;11.964;2022-11-11T03:40:20;15.70;;;9.87;;
13872;SDS011;7006;51.494;11.964;2022-11-11T03:42:46;17.10;;;9.30;;
13872;SDS011;7006;51.494;11.964;2022-11-11T03:45:12;16.80;;;8.57;;
13872;SDS011;7006;51.494;11.964;2022-11-11T03:47:39;14.27;;;8.67;;
13872;SDS011;7006;51.494;11.964;2022-11-11T03:50:07;13.20;;;8.07;;
13872;SDS011;7006;51.494;11.964;2022-11-11T03:52:33;10.80;;;7.60;;
13872;SDS011;7006;51.494;11.964;2022-11-11T03:55:00;12.60;;;7.30;;
13872;SDS011;7006;51.494;11.964;2022-11-11T03:57:26;15.23;;;7.30;;
13872;SDS011;7006;51.494;11.964;2022-11-11T03:59:58;16.53;;;7.20;;
13872;SDS011;7006;51.494;11.964;2022-11-11T04:02:24;17.80;;;7.70;;
13872;SDS011;7006;51.494;11.964;2022-11-11T04:05:10;16.07;;;8.27;;
13872;SDS011;7006;51.494;11.964;2022-11-11T04:07:53;10.57;;;6.60;;
13872;SDS011;7006;51.494;11.964;2022-11-11T04:10:38;11.00;;;6.90;;
13872;SDS011;7006;51.494;11.964;2022-11-11T04:13:04;13.97;;;7.43;;
13872;SDS011;7006;51.494;11.964;2022-11-11T04:15:48;10.00;;;6.33;;
13872;SDS011;7006;51.494;11.964;2022-11-11T04:18:40;14.53;;;6.90;;
13872;SDS011;7006;51.494;11.964;2022-11-11T04:21:26;9.90;;;6.13;;
13872;SDS011;7006;51.494;11.964;2022-11-11T04:24:10;10.43;;;5.87;;
13872;SDS011;7006;51.494;11.964;2022-11-11T04:26:55;10.90;;;6.20;;
13872;SDS011;7006;51.494;11.964;2022-11-11T04:29:21;10.40;;;5.60;;
13872;SDS011;7006;51.494;11.964;2022-11-11T04:31:53;13.60;;;5.90;;
13872;SDS011;7006;51.494;11.964;2022-11-11T04:34:36;13.13;;;5.80;;
13872;SDS011;7006;51.494;11.964;2022-11-11T04:37:04;10.53;;;5.60;;
13872;SDS011;7006;51.494;11.964;2022-11-11T04:39:30;11.50;;;5.97;;
13872;SDS011;7006;51.494;11.964;2022-11-11T04:42:14;12.90;;;6.50;;
13872;SDS011;7006;51.494;11.964;2022-11-11T04:44:41;6.40;;;4.67;;
13872;SDS011;7006;51.494;11.964;2022-11-11T04:47:25;10.70;;;6.43;;
13872;SDS011;7006;51.494;11.964;2022-11-11T04:49:51;12.33;;;5.90;;
13872;SDS011;7006;51.494;11.964;2022-11-11T04:52:19;17.67;;;6.30;;
13872;SDS011;7006;51.494;11.964;2022-11-11T04:54:54;12.73;;;5.67;;
13872;SDS011;7006;51.494;11.964;2022-11-11T04:57:39;11.77;;;6.77;;
13872;SDS011;7006;51.494;11.964;2022-11-11T05:00:06;12.60;;;7.20;;
13872;SDS011;7006;51.494;11.964;2022-11-11T05:02:33;10.10;;;6.97;;
13872;SDS011;7006;51.494;11.964;2022-11-11T05:05:17;15.00;;;8.40;;
13872;SDS011;7006;51.494;11.964;2022-11-11T05:07:45;14.30;;;8.00;;
13872;SDS011;7006;51.494;11.964;2022-11-11T05:10:28;17.10;;;8.70;;
13872;SDS011;7006;51.494;11.964;2022-11-11T05:12:55;11.97;;;7.50;;
13872;SDS011;7006;51.494;11.964;2022-11-11T05:15:42;13.90;;;7.57;;
13872;SDS011;7006;51.494;11.964;2022-11-11T05:18:26;13.33;;;7.50;;
13872;SDS011;7006;51.494;11.964;2022-11-11T05:21:10;12.50;;;6.47;;
13872;SDS011;7006;51.494;11.964;2022-11-11T05:23:47;12.80;;;6.10;;
13872;SDS011;7006;51.494;11.964;2022-11-11T05:26:31;14.37;;;4.90;;
13872;SDS011;7006;51.494;11.964;2022-11-11T05:28:58;10.30;;;5.20;;
13872;SDS011;7006;51.494;11.964;2022-11-11T05:31:24;9.37;;;5.77;;
13872;SDS011;7006;51.494;11.964;2022-11-11T05:33:50;7.60;;;5.00;;
13872;SDS011;7006;51.494;11.964;2022-11-11T05:36:17;9.47;;;5.83;;
13872;SDS011;7006;51.494;11.964;2022-11-11T05:38:43;11.90;;;5.20;;
13872;SDS011;7006;51.494;11.964;2022-11-11T05:41:11;10.33;;;5.60;;
13872;SDS011;7006;51.494;11.964;2022-11-11T05:43:38;9.30;;;5.30;;
13872;SDS011;7006;51.494;11.964;2022-11-11T05:46:04;8.90;;;4.83;;
13872;SDS011;7006;51.494;11.964;2022-11-11T05:48:30;10.20;;;5.40;;
13872;SDS011;7006;51.494;11.964;2022-11-11T05:50:57;10.43;;;4.80;;
13872;SDS011;7006;51.494;11.964;2022-11-11T05:53:23;10.60;;;6.43;;
13872;SDS011;7006;51.494;11.964;2022-11-11T05:55:50;9.67;;;4.87;;
13872;SDS011;7006;51.494;11.964;2022-11-11T05:58:17;10.00;;;4.60;;
13872;SDS011;7006;51.494;11.964;2022-11-11T06:00:44;9.50;;;4.50;;
13872;SDS011;7006;51.494;11.964;2022-11-11T06:03:11;8.17;;;4.43;;
13872;SDS011;7006;51.494;11.964;2022-11-11T06:05:37;8.40;;;4.30;;
13872;SDS011;7006;51.494;11.964;2022-11-11T06:08:04;10.97;;;4.87;;
13872;SDS011;7006;51.494;11.964;2022-11-11T06:10:30;8.27;;;4.60;;
13872;SDS011;7006;51.494;11.964;2022-11-11T06:12:56;5.90;;;3.97;;
13872;SDS011;7006;51.494;11.964;2022-11-11T06:15:35;10.40;;;4.57;;
13872;SDS011;7006;51.494;11.964;2022-11-11T06:18:02;10.00;;;4.70;;
13872;SDS011;7006;51.494;11.964;2022-11-11T06:20:29;10.77;;;5.07;;
13872;SDS011;7006;51.494;11.964;2022-11-11T06:22:55;9.90;;;5.00;;
13872;SDS011;7006;51.494;11.964;2022-11-11T06:25:22;8.63;;;4.70;;
13872;SDS011;7006;51.494;11.964;2022-11-11T06:28:20;9.37;;;4.27;;
13872;SDS011;7006;51.494;11.964;2022-11-11T06:30:48;9.03;;;4.60;;
13872;SDS011;7006;51.494;11.964;2022-11-11T06:33:14;9.30;;;4.77;;
13872;SDS011;7006;51.494;11.964;2022-11-11T06:35:42;8.97;;;4.63;;
13872;SDS011;7006;51.494;11.964;2022-11-11T06:38:08;8.83;;;5.30;;
13872;SDS011;7006;51.494;11.964;2022-11-11T06:40:35;7.63;;;4.37;;
13872;SDS011;7006;51.494;11.964;2022-11-11T06:43:01;7.03;;;5.20;;
13872;SDS011;7006;51.494;11.964;2022-11-11T06:45:28;8.43;;;4.77;;
13872;SDS011;7006;51.494;11.964;2022-11-11T06:47:56;6.50;;;4.00;;
13872;SDS011;7006;51.494;11.964;2022-11-11T06:50:22;12.90;;;4.43;;
13872;SDS011;7006;51.494;11.964;2022-11-11T06:52:49;8.67;;;4.43;;
13872;SDS011;7006;51.494;11.964;2022-11-11T06:55:16;8.57;;;4.00;;
13872;SDS011;7006;51.494;11.964;2022-11-11T06:57:42;9.13;;;4.33;;
13872;SDS011;7006;51.494;11.964;2022-11-11T07:00:09;7.10;;;4.37;;
13872;SDS011;7006;51.494;11.964;2022-11-11T07:02:36;5.90;;;3.70;;
13872;SDS011;7006;51.494;11.964;2022-11-11T07:05:04;6.57;;;3.80;;
13872;SDS011;7006;51.494;11.964;2022-11-11T07:07:31;10.67;;;4.20;;
13872;SDS011;7006;51.494;11.964;2022-11-11T07:09:57;9.63;;;4.30;;
13872;SDS011;7006;51.494;11.964;2022-11-11T07:12:24;8.50;;;4.20;;
13872;SDS011;7006;51.494;11.964;2022-11-11T07:14:50;7.50;;;3.57;;
13872;SDS011;7006;51.494;11.964;2022-11-11T07:17:17;6.40;;;3.43;;
13872;SDS011;7006;51.494;11.964;2022-11-11T07:19:43;6.67;;;4.40;;
13872;SDS011;7006;51.494;11.964;2022-11-11T07:22:11;13.77;;;6.10;;
13872;SDS011;7006;51.494;11.964;2022-11-11T07:24:37;17.97;;;8.13;;
13872;SDS011;7006;51.494;11.964;2022-11-11T07:27:04;17.13;;;8.10;;
13872;SDS011;7006;51.494;11.964;2022-11-11T07:29:30;10.50;;;5.53;;
13872;SDS011;7006;51.494;11.964;2022-11-11T07:31:56;6.50;;;4.10;;
13872;SDS011;7006;51.494;11.964;2022-11-11T07:34:23;8.27;;;4.10;;
13872;SDS011;7006;51.494;11.964;2022-11-11T07:36:49;5.93;;;3.47;;
13872;SDS011;7006;51.494;11.964;2022-11-11T07:39:17;7.57;;;4.00;;
13872;SDS011;7006;51.494;11.964;2022-11-11T07:41:43;7.60;;;3.90;;
13872;SDS011;7006;51.494;11.964;2022-11-11T07:44:10;9.07;;;4.60;;
13872;SDS011;7006;51.494;11.964;2022-11-11T07:46:36;8.87;;;5.07;;
13872;SDS011;7006;51.494;11.964;2022-11-11T07:49:02;9.43;;;5.27;;
13872;SDS011;7006;51.494;11.964;2022-11-11T07:51:29;9.60;;;4.37;;
13872;SDS011;7006;51.494;11.964;2022-11-11T07:53:55;7.17;;;4.17;;
13872;SDS011;7006;51.494;11.964;2022-11-11T07:56:23;7.37;;;4.17;;
13872;SDS011;7006;51.494;11.964;2022-11-11T07:58:49;10.33;;;4.50;;
13872;SDS011;7006;51.494;11.964;2022-11-11T08:01:16;5.03;;;3.40;;
13872;SDS011;7006;51.494;11.964;2022-11-11T08:03:42;6.33;;;3.70;;
13872;SDS011;7006;51.494;11.964;2022-11-11T08:06:14;7.13;;;3.47;;
13872;SDS011;7006;51.494;11.964;2022-11-11T08:08:41;7.87;;;3.40;;
13872;SDS011;7006;51.494;11.964;2022-11-11T08:11:07;11.00;;;3.80;;
13872;SDS011;7006;51.494;11.964;2022-11-11T08:13:35;4.77;;;2.87;;
13872;SDS011;7006;51.494;11.964;2022-11-11T08:16:06;8.43;;;3.33;;
13872;SDS011;7006;51.494;11.964;2022-11-11T08:18:32;8.03;;;3.73;;
13872;SDS011;7006;51.494;11.964;2022-11-11T08:20:59;5.80;;;3.23;;
13872;SDS011;7006;51.494;11.964;2022-11-11T08:23:26;10.23;;;3.40;;
13872;SDS011;7006;51.494;11.964;2022-11-11T08:25:57;6.83;;;3.17;;
13872;SDS011;7006;51.494;11.964;2022-11-11T08:28:24;4.80;;;3.00;;
13872;SDS011;7006;51.494;11.964;2022-11-11T08:30:51;7.80;;;3.37;;
13872;SDS011;7006;51.494;11.964;2022-11-11T08:33:18;7.73;;;3.00;;
13872;SDS011;7006;51.494;11.964;2022-11-11T08:35:44;6.17;;;3.83;;
13872;SDS011;7006;51.494;11.964;2022-11-11T08:38:11;8.23;;;3.47;;
13872;SDS011;7006;51.494;11.964;2022-11-11T08:40:38;6.30;;;3.57;;
13872;SDS011;7006;51.494;11.964;2022-11-11T08:43:04;6.20;;;3.93;;
13872;SDS011;7006;51.494;11.964;2022-11-11T08:45:30;7.00;;;4.20;;
13872;SDS011;7006;51.494;11.964;2022-11-11T08:47:58;7.80;;;3.40;;
13872;SDS011;7006;51.494;11.964;2022-11-11T08:50:24;6.47;;;3.40;;
13872;SDS011;7006;51.494;11.964;2022-11-11T08:52:51;7.43;;;3.87;;
13872;SDS011;7006;51.494;11.964;2022-11-11T08:55:17;7.13;;;3.40;;
13872;SDS011;7006;51.494;11.964;2022-11-11T08:57:44;4.50;;;3.00;;
13872;SDS011;7006;51.494;11.964;2022-11-11T09:00:11;4.30;;;2.80;;
13872;SDS011;7006;51.494;11.964;2022-11-11T09:02:38;4.67;;;2.77;;
13872;SDS011;7006;51.494;11.964;2022-11-11T09:05:06;6.43;;;3.47;;
13872;SDS011;7006;51.494;11.964;2022-11-11T09:07:32;5.97;;;3.90;;
13872;SDS011;7006;51.494;11.964;2022-11-11T09:09:59;9.43;;;4.00;;
13872;SDS011;7006;51.494;11.964;2022-11-11T09:12:25;7.87;;;4.57;;
13872;SDS011;7006;51.494;11.964;2022-11-11T09:14:51;7.50;;;6.33;;
13872;SDS011;7006;51.494;11.964;2022-11-11T09:17:18;10.17;;;4.33;;
13872;SDS011;7006;51.494;11.964;2022-11-11T09:19:44;6.07;;;3.23;;
13872;SDS011;7006;51.494;11.964;2022-11-11T09:22:12;8.03;;;3.90;;
13872;SDS011;7006;51.494;11.964;2022-11-11T09:24:38;6.60;;;2.40;;
13872;SDS011;7006;51.494;11.964;2022-11-11T09:27:04;8.80;;;3.97;;
13872;SDS011;7006;51.494;11.964;2022-11-11T09:29:31;6.20;;;2.67;;
13872;SDS011;7006;51.494;11.964;2022-11-11T09:31:57;6.30;;;3.63;;
13872;SDS011;7006;51.494;11.964;2022-11-11T09:34:24;21.50;;;10.30;;
13872;SDS011;7006;51.494;11.964;2022-11-11T09:36:50;10.17;;;5.83;;
13872;SDS011;7006;51.494;11.964;2022-11-11T09:39:18;5.93;;;2.70;;
13872;SDS011;7006;51.494;11.964;2022-11-11T09:41:47;6.23;;;2.50;;
13872;SDS011;7006;51.494;11.964;2022-11-11T09:44:21;5.10;;;2.50;;
13872;SDS011;7006;51.494;11.964;2022-11-11T09:46:51;6.10;;;2.20;;
13872;SDS011;7006;51.494;11.964;2022-11-11T09:49:27;5.53;;;2.07;;
13872;SDS011;7006;51.494;11.964;2022-11-11T09:51:58;5.53;;;2.27;;
13872;SDS011;7006;51.494;11.964;2022-11-11T09:54:31;5.37;;;2.30;;
13872;SDS011;7006;51.494;11.964;2022-11-11T09:56:59;3.40;;;1.80;;
13872;SDS011;7006;51.494;11.964;2022-11-11T09:59:28;4.93;;;2.43;;
13872;SDS011;7006;51.494;11.964;2022-11-11T10:01:55;4.07;;;2.00;;
13872;SDS011;7006;51.494;11.964;2022-11-11T10:04:25;6.40;;;2.10;;
13872;SDS011;7006;51.494;11.964;2022-11-11T10:06:54;7.27;;;2.10;;
13872;SDS011;7006;51.494;11.964;2022-11-11T10:09:23;5.13;;;2.10;;
13872;SDS011;7006;51.494;11.964;2022-11-11T10:11:53;4.13;;;2.33;;
13872;SDS011;7006;51.494;11.964;2022-11-11T10:14:24;3.87;;;2.00;;
13872;SDS011;7006;51.494;11.964;2022-11-11T10:16:53;5.03;;;1.90;;
13872;SDS011;7006;51.494;11.964;2022-11-11T10:19:24;6.97;;;2.33;;
13872;SDS011;7006;51.494;11.964;2022-11-11T10:21:52;5.30;;;2.00;;
13872;SDS011;7006;51.494;11.964;2022-11-11T10:24:21;7.80;;;2.40;;
13872;SDS011;7006;51.494;11.964;2022-11-11T10:26:50;4.33;;;2.20;;
13872;SDS011;7006;51.494;11.964;2022-11-11T10:29:18;4.93;;;2.67;;
13872;SDS011;7006;51.494;11.964;2022-11-11T10:31:45;6.53;;;2.17;;
13872;SDS011;7006;51.494;11.964;2022-11-11T10:34:14;3.90;;;2.10;;
13872;SDS011;7006;51.494;11.964;2022-11-11T10:36:43;7.00;;;2.30;;
13872;SDS011;7006;51.494;11.964;2022-11-11T10:39:10;4.13;;;2.33;;
13872;SDS011;7006;51.494;11.964;2022-11-11T10:41:39;5.97;;;2.30;;
13872;SDS011;7006;51.494;11.964;2022-11-11T10:44:19;5.50;;;2.33;;
13872;SDS011;7006;51.494;11.964;2022-11-11T10:46:49;5.77;;;2.90;;
13872;SDS011;7006;51.494;11.964;2022-11-11T10:49:20;5.03;;;2.43;;
13872;SDS011;7006;51.494;11.964;2022-11-11T10:51:50;6.57;;;2.40;;
13872;SDS011;7006;51.494;11.964;2022-11-11T10:54:18;4.00;;;2.23;;
13872;SDS011;7006;51.494;11.964;2022-11-11T10:56:49;4.73;;;2.40;;
13872;SDS011;7006;51.494;11.964;2022-11-11T10:59:20;6.00;;;2.20;;
13872;SDS011;7006;51.494;11.964;2022-11-11T11:01:48;6.40;;;2.87;;
13872;SDS011;7006;51.494;11.964;2022-11-11T11:04:19;5.73;;;2.60;;
13872;SDS011;7006;51.494;11.964;2022-11-11T11:06:47;5.03;;;2.10;;
13872;SDS011;7006;51.494;11.964;2022-11-11T11:09:16;5.73;;;2.50;;
13872;SDS011;7006;51.494;11.964;2022-11-11T11:11:46;3.80;;;1.90;;
13872;SDS011;7006;51.494;11.964;2022-11-11T11:14:15;3.47;;;2.20;;
13872;SDS011;7006;51.494;11.964;2022-11-11T11:16:47;5.13;;;1.70;;
13872;SDS011;7006;51.494;11.964;2022-11-11T11:19:18;4.43;;;2.17;;
13872;SDS011;7006;51.494;11.964;2022-11-11T11:21:49;5.57;;;2.00;;
13872;SDS011;7006;51.494;11.964;2022-11-11T11:24:17;4.63;;;2.30;;
13872;SDS011;7006;51.494;11.964;2022-11-11T11:26:44;4.40;;;2.10;;
13872;SDS011;7006;51.494;11.964;2022-11-11T11:29:11;4.30;;;2.10;;
13872;SDS011;7006;51.494;11.964;2022-11-11T11:31:38;3.27;;;1.70;;
13872;SDS011;7006;51.494;11.964;2022-11-11T11:34:06;3.20;;;2.17;;
13872;SDS011;7006;51.494;11.964;2022-11-11T11:36:33;3.30;;;2.27;;
13872;SDS011;7006;51.494;11.964;2022-11-11T11:38:59;4.43;;;2.47;;
13872;SDS011;7006;51.494;11.964;2022-11-11T11:41:35;3.97;;;2.13;;
13872;SDS011;7006;51.494;11.964;2022-11-11T11:44:01;3.67;;;1.70;;
13872;SDS011;7006;51.494;11.964;2022-11-11T11:46:29;4.87;;;1.87;;
13872;SDS011;7006;51.494;11.964;2022-11-11T11:49:00;3.07;;;1.87;;
13872;SDS011;7006;51.494;11.964;2022-11-11T11:51:34;4.60;;;2.40;;
13872;SDS011;7006;51.494;11.964;2022-11-11T11:54:03;4.00;;;2.00;;
13872;SDS011;7006;51.494;11.964;2022-11-11T11:56:36;4.43;;;2.40;;
13872;SDS011;7006;51.494;11.964;2022-11-11T11:59:05;4.37;;;1.90;;
13872;SDS011;7006;51.494;11.964;2022-11-11T12:01:34;4.30;;;2.70;;
13872;SDS011;7006;51.494;11.964;2022-11-11T12:04:19;3.80;;;2.53;;
13872;SDS011;7006;51.494;11.964;2022-11-11T12:06:51;4.63;;;2.40;;
13872;SDS011;7006;51.494;11.964;2022-11-11T12:09:23;12.37;;;2.47;;
13872;SDS011;7006;51.494;11.964;2022-11-11T12:11:57;3.63;;;1.80;;
13872;SDS011;7006;51.494;11.964;2022-11-11T12:14:28;3.13;;;1.37;;
13872;SDS011;7006;51.494;11.964;2022-11-11T12:17:00;4.63;;;2.57;;
13872;SDS011;7006;51.494;11.964;2022-11-11T12:19:40;3.33;;;1.87;;
13872;SDS011;7006;51.494;11.964;2022-11-11T12:22:12;3.10;;;1.47;;
13872;SDS011;7006;51.494;11.964;2022-11-11T12:24:47;3.30;;;1.63;;
13872;SDS011;7006;51.494;11.964;2022-11-11T12:27:17;3.97;;;1.43;;
13872;SDS011;7006;51.494;11.964;2022-11-11T12:32:31;2.90;;;1.50;;
13872;SDS011;7006;51.494;11.964;2022-11-11T12:35:05;2.90;;;1.40;;
13872;SDS011;7006;51.494;11.964;2022-11-11T12:37:36;3.00;;;1.63;;
13872;SDS011;7006;51.494;11.964;2022-11-11T12:40:13;3.00;;;1.30;;
13872;SDS011;7006;51.494;11.964;2022-11-11T12:42:48;2.93;;;1.20;;
13872;SDS011;7006;51.494;11.964;2022-11-11T12:45:22;3.27;;;1.40;;
13872;SDS011;7006;51.494;11.964;2022-11-11T12:47:52;3.20;;;1.50;;
13872;SDS011;7006;51.494;11.964;2022-11-11T12:50:23;2.50;;;1.20;;
13872;SDS011;7006;51.494;11.964;2022-11-11T12:52:57;2.60;;;1.40;;
13872;SDS011;7006;51.494;11.964;2022-11-11T12:55:28;5.80;;;1.50;;
13872;SDS011;7006;51.494;11.964;2022-11-11T12:58:02;3.27;;;1.50;;
13872;SDS011;7006;51.494;11.964;2022-11-11T13:00:31;3.50;;;1.57;;
13872;SDS011;7006;51.494;11.964;2022-11-11T13:03:14;3.10;;;1.47;;
13872;SDS011;7006;51.494;11.964;2022-11-11T13:05:44;4.13;;;1.70;;
13872;SDS011;7006;51.494;11.964;2022-11-11T13:08:19;2.53;;;1.30;;
13872;SDS011;7006;51.494;11.964;2022-11-11T13:10:54;4.30;;;1.40;;
13872;SDS011;7006;51.494;11.964;2022-11-11T13:13:29;3.20;;;1.40;;
13872;SDS011;7006;51.494;11.964;2022-11-11T13:15:57;2.10;;;1.17;;
13872;SDS011;7006;51.494;11.964;2022-11-11T13:18:25;2.87;;;1.63;;
13872;SDS011;7006;51.494;11.964;2022-11-11T13:20:53;3.00;;;1.30;;
13872;SDS011;7006;51.494;11.964;2022-11-11T13:23:23;1.60;;;1.03;;
13872;SDS011;7006;51.494;11.964;2022-11-11T13:25:50;5.13;;;1.70;;
13872;SDS011;7006;51.494;11.964;2022-11-11T13:28:19;3.50;;;1.47;;
13872;SDS011;7006;51.494;11.964;2022-11-11T13:30:50;5.00;;;1.50;;
13872;SDS011;7006;51.494;11.964;2022-11-11T13:33:19;4.10;;;1.95;;
13872;SDS011;7006;51.494;11.964;2022-11-11T13:35:47;2.40;;;1.30;;
13872;SDS011;7006;51.494;11.964;2022-11-11T13:38:22;2.63;;;1.57;;
13872;SDS011;7006;51.494;11.964;2022-11-11T13:40:51;4.27;;;1.67;;
13872;SDS011;7006;51.494;11.964;2022-11-11T13:43:20;3.33;;;1.57;;
13872;SDS011;7006;51.494;11.964;2022-11-11T13:45:49;3.10;;;1.40;;
13872;SDS011;7006;51.494;11.964;2022-11-11T13:48:26;3.13;;;1.40;;
13872;SDS011;7006;51.494;11.964;2022-11-11T13:50:54;3.13;;;1.50;;
13872;SDS011;7006;51.494;11.964;2022-11-11T13:53:35;4.60;;;1.90;;
13872;SDS011;7006;51.494;11.964;2022-11-11T13:56:04;3.70;;;1.50;;
13872;SDS011;7006;51.494;11.964;2022-11-11T13:58:32;4.50;;;1.30;;
13872;SDS011;7006;51.494;11.964;2022-11-11T14:01:00;3.47;;;1.70;;
13872;SDS011;7006;51.494;11.964;2022-11-11T14:03:29;4.50;;;2.00;;
13872;SDS011;7006;51.494;11.964;2022-11-11T14:08:50;3.10;;;1.37;;
13872;SDS011;7006;51.494;11.964;2022-11-11T14:11:26;3.60;;;1.70;;
13872;SDS011;7006;51.494;11.964;2022-11-11T14:13:54;4.90;;;2.70;;
13872;SDS011;7006;51.494;11.964;2022-11-11T14:19:12;3.40;;;1.90;;
13872;SDS011;7006;51.494;11.964;2022-11-11T14:21:52;8.67;;;2.50;;
13872;SDS011;7006;51.494;11.964;2022-11-11T14:24:21;4.30;;;1.73;;
13872;SDS011;7006;51.494;11.964;2022-11-11T14:26:56;2.70;;;1.67;;
13872;SDS011;7006;51.494;11.964;2022-11-11T14:29:24;3.50;;;2.03;;
13872;SDS011;7006;51.494;11.964;2022-11-11T14:32:01;5.40;;;1.77;;
13872;SDS011;7006;51.494;11.964;2022-11-11T14:34:33;6.67;;;2.10;;
13872;SDS011;7006;51.494;11.964;2022-11-11T14:37:03;7.00;;;2.07;;
13872;SDS011;7006;51.494;11.964;2022-11-11T14:39:35;6.20;;;2.20;;
13872;SDS011;7006;51.494;11.964;2022-11-11T14:42:04;3.90;;;2.20;;
13872;SDS011;7006;51.494;11.964;2022-11-11T14:44:37;2.77;;;1.80;;
13872;SDS011;7006;51.494;11.964;2022-11-11T14:47:19;5.40;;;2.23;;
13872;SDS011;7006;51.494;11.964;2022-11-11T14:49:48;4.80;;;2.10;;
13872;SDS011;7006;51.494;11.964;2022-11-11T14:52:17;6.30;;;2.80;;
13872;SDS011;7006;51.494;11.964;2022-11-11T14:54:54;9.30;;;4.20;;
13872;SDS011;7006;51.494;11.964;2022-11-11T14:57:24;4.80;;;3.37;;
13872;SDS011;7006;51.494;11.964;2022-11-11T14:59:51;6.93;;;4.30;;
13872;SDS011;7006;51.494;11.964;2022-11-11T15:02:30;14.20;;;9.80;;
13872;SDS011;7006;51.494;11.964;2022-11-11T15:04:59;14.27;;;7.10;;
13872;SDS011;7006;51.494;11.964;2022-11-11T15:07:35;8.60;;;6.40;;